createdAt,value
2023-04-01T00:02:14.253Z,9.70
2023-04-01T00:05:14.428Z,7.30
2023-04-01T00:08:10.019Z,8.00
2023-04-01T00:11:17.698Z,8.80
2023-04-01T00:14:16.875Z,7.70
2023-04-01T00:20:34.637Z,7.50
2023-04-01T00:23:13.970Z,6.50
2023-04-01T00:26:09.126Z,6.80
2023-04-01T00:28:44.219Z,6.90
2023-04-01T00:31:43.856Z,6.30
2023-04-01T00:34:38.985Z,5.50
2023-04-01T00:37:42.383Z,6.10
2023-04-01T00:40:39.832Z,5.40
2023-04-01T00:43:46.382Z,6.90
2023-04-01T00:46:41.629Z,5.80
2023-04-01T00:49:42.218Z,5.20
2023-04-01T00:52:25.437Z,5.70
2023-04-01T00:55:21.719Z,6.90
2023-04-01T00:58:20.842Z,5.20
2023-04-01T01:01:04.643Z,5.70
2023-04-01T01:04:03.402Z,6.70
2023-04-01T01:07:10.027Z,6.10
2023-04-01T01:10:04.017Z,5.70
2023-04-01T01:13:07.120Z,5.90
2023-04-01T01:16:08.475Z,6.30
2023-04-01T01:19:22.981Z,7.70
2023-04-01T01:22:31.170Z,6.60
2023-04-01T01:25:42.802Z,6.30
2023-04-01T01:28:50.248Z,6.70
2023-04-01T01:31:53.323Z,5.30
2023-04-01T01:34:57.948Z,8.10
2023-04-01T01:37:56.529Z,7.50
2023-04-01T01:40:55.416Z,6.20
2023-04-01T01:43:53.815Z,6.10
2023-04-01T01:46:49.935Z,6.40
2023-04-01T01:49:45.946Z,7.30
2023-04-01T01:52:40.223Z,5.90
2023-04-01T01:55:37.656Z,7.30
2023-04-01T01:58:27.245Z,5.90
2023-04-01T02:01:26.647Z,5.80
2023-04-01T02:04:23.617Z,5.50
2023-04-01T02:07:24.221Z,8.00
2023-04-01T02:10:18.681Z,6.70
2023-04-01T02:13:19.360Z,6.70
2023-04-01T02:16:18.633Z,6.70
2023-04-01T02:19:15.508Z,6.10
2023-04-01T02:22:32.511Z,6.10
2023-04-01T02:25:30.901Z,9.40
2023-04-01T02:28:26.980Z,5.30
2023-04-01T02:31:21.555Z,6.40
2023-04-01T02:34:16.074Z,5.80
2023-04-01T02:37:10.719Z,4.90
2023-04-01T02:40:08.510Z,7.00
2023-04-01T02:43:02.595Z,6.80
2023-04-01T02:45:56.871Z,5.70
2023-04-01T02:48:50.587Z,5.50
2023-04-01T02:51:44.985Z,7.40
2023-04-01T02:54:39.201Z,7.00
2023-04-01T02:57:33.198Z,6.40
2023-04-01T03:00:27.970Z,5.30
2023-04-01T03:03:22.192Z,6.40
2023-04-01T03:06:18.147Z,6.10
2023-04-01T03:09:12.487Z,5.50
2023-04-01T03:12:06.953Z,6.20
2023-04-01T03:15:10.844Z,5.50
2023-04-01T03:18:08.106Z,8.80
2023-04-01T03:21:23.704Z,7.90
2023-04-01T03:24:17.937Z,4.10
2023-04-01T03:27:11.703Z,5.30
2023-04-01T03:30:07.301Z,4.60
2023-04-01T03:33:01.676Z,4.90
2023-04-01T03:35:55.688Z,6.20
2023-04-01T03:38:49.663Z,5.10
2023-04-01T03:41:43.816Z,5.00
2023-04-01T03:44:37.914Z,5.90
2023-04-01T03:47:32.372Z,4.70
2023-04-01T03:50:26.358Z,6.50
2023-04-01T03:53:20.765Z,7.40
2023-04-01T03:56:15.624Z,5.90
2023-04-01T03:59:11.384Z,7.60
2023-04-01T04:02:06.049Z,5.30
2023-04-01T04:05:00.003Z,4.80
2023-04-01T04:07:54.002Z,6.90
2023-04-01T04:10:48.007Z,5.50
2023-04-01T04:13:42.390Z,6.40
2023-04-01T04:16:38.596Z,5.10
2023-04-01T04:19:36.448Z,5.10
2023-04-01T04:22:30.545Z,4.80
2023-04-01T04:25:24.461Z,5.70
2023-04-01T04:28:18.804Z,4.90
2023-04-01T04:31:12.880Z,5.60
2023-04-01T04:34:06.910Z,6.30
2023-04-01T04:37:01.123Z,6.10
2023-04-01T04:39:55.505Z,5.70
2023-04-01T04:42:49.715Z,5.50
2023-04-01T04:45:44.043Z,5.20
2023-04-01T04:48:38.367Z,5.10
2023-04-01T04:51:34.874Z,4.90
2023-04-01T04:54:29.010Z,4.10
2023-04-01T04:57:22.830Z,4.70
2023-04-01T05:00:18.280Z,6.20
2023-04-01T05:03:12.731Z,5.50
2023-04-01T05:06:08.424Z,5.10
2023-04-01T05:09:02.730Z,5.60
2023-04-01T05:11:57.066Z,5.60
2023-04-01T05:14:51.153Z,6.10
2023-04-01T05:17:45.138Z,6.00
2023-04-01T05:20:39.620Z,5.40
2023-04-01T05:23:34.950Z,6.10
2023-04-01T05:26:29.209Z,6.10
2023-04-01T05:29:23.554Z,4.80
2023-04-01T05:32:18.094Z,4.90
2023-04-01T05:35:13.619Z,4.50
2023-04-01T05:38:08.235Z,5.00
2023-04-01T05:41:06.256Z,5.50
2023-04-01T05:44:00.646Z,5.10
2023-04-01T05:46:54.982Z,5.50
2023-04-01T05:49:49.035Z,4.70
2023-04-01T05:52:43.199Z,6.40
2023-04-01T05:55:38.601Z,6.60
2023-04-01T05:58:32.543Z,6.00
2023-04-01T06:01:16.249Z,9.30
2023-04-01T06:04:13.275Z,6.80
2023-04-01T06:07:15.107Z,6.40
2023-04-01T06:10:17.914Z,11.40
2023-04-01T06:13:21.782Z,5.60
2023-04-01T06:16:30.102Z,9.30
2023-04-01T06:19:39.058Z,5.20
2023-04-01T06:23:05.555Z,7.00
2023-04-01T06:26:15.509Z,6.10
2023-04-01T06:29:21.731Z,5.00
2023-04-01T06:32:53.317Z,6.30
2023-04-01T06:36:41.521Z,7.10
2023-04-01T06:40:02.258Z,3.80
2023-04-01T06:43:08.480Z,5.80
2023-04-01T06:46:11.788Z,4.90
2023-04-01T06:49:51.818Z,4.50
2023-04-01T06:55:47.305Z,6.80
2023-04-01T06:58:29.490Z,10.10
2023-04-01T07:01:30.680Z,6.30
2023-04-01T07:04:32.682Z,5.00
2023-04-01T07:07:41.550Z,5.00
2023-04-01T07:10:48.186Z,8.10
2023-04-01T07:13:48.227Z,7.10
2023-04-01T07:16:46.202Z,5.20
2023-04-01T07:20:04.172Z,4.20
2023-04-01T07:23:03.683Z,4.70
2023-04-01T07:26:03.362Z,4.30
2023-04-01T07:29:01.672Z,5.30
2023-04-01T07:32:19.291Z,4.90
2023-04-01T07:35:30.029Z,6.70
2023-04-01T07:38:39.612Z,6.70
2023-04-01T07:41:45.522Z,5.00
2023-04-01T07:44:52.122Z,8.60
2023-04-01T07:48:10.773Z,7.40
2023-04-01T07:51:13.112Z,10.20
2023-04-01T07:54:14.225Z,6.50
2023-04-01T07:57:14.533Z,5.70
2023-04-01T08:00:18.303Z,6.50
2023-04-01T08:03:40.544Z,8.00
2023-04-01T08:06:46.312Z,7.80
2023-04-01T08:09:29.641Z,5.30
2023-04-01T08:12:39.562Z,7.10
2023-04-01T08:15:28.397Z,6.70
2023-04-01T08:18:36.227Z,6.50
2023-04-01T08:21:35.223Z,5.40
2023-04-01T08:24:47.194Z,4.70
2023-04-01T08:27:46.859Z,5.70
2023-04-01T08:30:49.912Z,7.70
2023-04-01T08:33:48.587Z,6.20
2023-04-01T08:36:49.836Z,4.90
2023-04-01T08:39:38.922Z,7.00
2023-04-01T08:42:57.745Z,7.60
2023-04-01T08:46:09.441Z,4.70
2023-04-01T08:49:30.191Z,6.80
2023-04-01T08:52:39.308Z,5.60
2023-04-01T08:56:03.239Z,5.90
2023-04-01T08:59:22.933Z,7.70
2023-04-01T09:02:52.477Z,6.30
2023-04-01T09:06:13.161Z,6.80
2023-04-01T09:09:42.722Z,5.70
2023-04-01T09:13:17.666Z,6.90
2023-04-01T09:16:22.601Z,7.90
2023-04-01T09:19:39.919Z,7.00
2023-04-01T09:22:53.079Z,5.40
2023-04-01T09:26:10.264Z,5.40
2023-04-01T09:29:23.606Z,6.10
2023-04-01T09:32:29.207Z,4.60
2023-04-01T09:35:41.744Z,6.60
2023-04-01T09:38:48.887Z,4.80
2023-04-01T09:42:00.256Z,5.20
2023-04-01T09:45:00.186Z,8.00
2023-04-01T09:48:11.523Z,5.00
2023-04-01T09:51:08.289Z,4.60
2023-04-01T09:54:18.635Z,6.30
2023-04-01T09:57:52.873Z,5.70
2023-04-01T10:01:21.906Z,5.50
2023-04-01T10:04:57.160Z,5.70
2023-04-01T10:08:27.127Z,6.40
2023-04-01T10:11:58.937Z,8.00
2023-04-01T10:18:42.389Z,5.50
2023-04-01T10:22:19.843Z,5.80
2023-04-01T10:26:16.627Z,4.90
2023-04-01T10:29:47.678Z,5.00
2023-04-01T10:33:20.126Z,5.90
2023-04-01T10:36:54.529Z,4.20
2023-04-01T10:40:31.746Z,5.80
2023-04-01T10:44:30.189Z,6.00
2023-04-01T10:48:10.294Z,4.80
2023-04-01T10:51:42.403Z,4.30
2023-04-01T10:54:51.030Z,6.90
2023-04-01T10:58:27.103Z,5.80
2023-04-01T11:02:03.933Z,4.90
2023-04-01T11:05:46.386Z,4.00
2023-04-01T11:09:32.902Z,5.80
2023-04-01T11:13:07.528Z,4.60
2023-04-01T11:16:32.150Z,4.60
2023-04-01T11:20:26.616Z,5.00
2023-04-01T11:24:02.240Z,4.30
2023-04-01T11:27:11.823Z,4.80
2023-04-01T11:30:25.882Z,5.40
2023-04-01T11:33:09.548Z,6.50
2023-04-01T11:36:22.998Z,5.70
2023-04-01T11:39:33.382Z,5.40
2023-04-01T11:42:42.748Z,4.50
2023-04-01T11:45:45.958Z,5.10
2023-04-01T11:49:00.457Z,7.00
2023-04-01T11:52:17.395Z,5.10
2023-04-01T11:55:30.459Z,6.40
2023-04-01T11:58:50.918Z,6.80
2023-04-01T12:02:01.801Z,4.70
2023-04-01T12:05:35.206Z,5.10
2023-04-01T12:08:47.449Z,6.60
2023-04-01T12:11:54.422Z,5.30
2023-04-01T12:15:01.689Z,6.30
2023-04-01T12:18:19.825Z,4.80
2023-04-01T12:21:28.558Z,5.50
2023-04-01T12:24:50.361Z,4.00
2023-04-01T12:28:04.390Z,5.30
2023-04-01T12:31:19.864Z,5.10
2023-04-01T12:34:59.277Z,4.50
2023-04-01T12:38:04.070Z,5.10
2023-04-01T12:41:16.592Z,5.20
2023-04-01T12:44:44.124Z,3.90
2023-04-01T12:48:00.225Z,4.60
2023-04-01T12:51:30.535Z,5.20
2023-04-01T12:55:00.801Z,6.10
2023-04-01T12:58:47.252Z,7.50
2023-04-01T13:02:23.652Z,5.50
2023-04-01T13:06:05.969Z,4.50
2023-04-01T13:08:49.814Z,7.00
2023-04-01T13:11:59.350Z,6.30
2023-04-01T13:15:22.342Z,6.30
2023-04-01T13:18:32.246Z,8.30
2023-04-01T13:21:41.772Z,7.30
2023-04-01T13:24:47.988Z,4.80
2023-04-01T13:27:33.159Z,4.80
2023-04-01T13:30:53.162Z,4.60
2023-04-01T13:33:55.919Z,4.40
2023-04-01T13:37:06.774Z,3.50
2023-04-01T13:40:20.273Z,5.00
2023-04-01T13:43:23.181Z,4.50
2023-04-01T13:46:51.080Z,4.60
2023-04-01T13:50:13.841Z,5.90
2023-04-01T13:53:50.755Z,4.20
2023-04-01T13:56:56.618Z,5.00
2023-04-01T14:00:35.857Z,4.20
2023-04-01T14:04:07.142Z,5.70
2023-04-01T14:07:28.630Z,3.90
2023-04-01T14:10:38.544Z,5.20
2023-04-01T14:13:47.160Z,5.20
2023-04-01T14:17:16.244Z,4.20
2023-04-01T14:20:32.614Z,5.30
2023-04-01T14:23:52.610Z,5.70
2023-04-01T14:27:15.753Z,5.60
2023-04-01T14:30:43.088Z,5.80
2023-04-01T14:33:53.028Z,5.60
2023-04-01T14:37:03.398Z,5.10
2023-04-01T14:44:10.961Z,5.60
2023-04-01T14:47:36.982Z,7.30
2023-04-01T14:50:48.797Z,5.40
2023-04-01T14:53:58.321Z,6.80
2023-04-01T14:57:07.296Z,9.70
2023-04-01T15:00:16.666Z,11.80
2023-04-01T15:03:21.805Z,8.40
2023-04-01T15:06:57.324Z,8.90
2023-04-01T15:13:21.520Z,11.10
2023-04-01T15:16:27.649Z,12.10
2023-04-01T15:19:32.363Z,11.30
2023-04-01T15:22:46.490Z,11.20
2023-04-01T15:25:56.902Z,14.30
2023-04-01T15:29:05.617Z,9.10
2023-04-01T15:32:07.605Z,11.20
2023-04-01T15:35:17.117Z,10.40
2023-04-01T15:38:19.201Z,12.40
2023-04-01T15:41:19.401Z,12.80
2023-04-01T15:48:01.037Z,11.40
2023-04-01T15:51:12.182Z,13.50
2023-04-01T15:55:03.245Z,12.70
2023-04-01T15:58:17.711Z,9.60
2023-04-01T16:01:07.005Z,12.90
2023-04-01T16:04:17.434Z,11.50
2023-04-01T16:10:34.875Z,15.10
2023-04-01T16:13:48.529Z,12.10
2023-04-01T16:17:24.493Z,14.00
2023-04-01T16:20:41.516Z,13.40
2023-04-01T16:23:26.305Z,13.90
2023-04-01T16:26:23.946Z,15.50
2023-04-01T16:29:29.704Z,11.40
2023-04-01T16:32:31.884Z,13.80
2023-04-01T16:35:46.543Z,11.40
2023-04-01T16:38:49.007Z,15.00
2023-04-01T16:41:34.091Z,13.70
2023-04-01T16:44:31.315Z,11.60
2023-04-01T16:47:32.396Z,12.80
2023-04-01T16:50:32.186Z,11.80
2023-04-01T16:53:44.025Z,12.70
2023-04-01T16:56:48.070Z,11.40
2023-04-01T16:59:31.363Z,14.60
2023-04-01T17:02:31.296Z,14.40
2023-04-01T17:05:41.762Z,12.60
2023-04-01T17:08:55.633Z,15.20
2023-04-01T17:11:58.880Z,15.40
2023-04-01T17:15:04.595Z,14.50
2023-04-01T17:18:06.510Z,13.00
2023-04-01T17:21:08.865Z,12.30
2023-04-01T17:24:22.509Z,12.80
2023-04-01T17:27:36.706Z,13.00
2023-04-01T17:30:41.412Z,11.60
2023-04-01T17:34:22.179Z,12.30
2023-04-01T17:37:39.461Z,12.40
2023-04-01T17:40:48.418Z,12.60
2023-04-01T17:43:51.700Z,14.60
2023-04-01T17:47:08.840Z,12.30
2023-04-01T17:50:22.570Z,12.50
2023-04-01T17:53:31.768Z,12.00
2023-04-01T17:56:41.784Z,14.70
2023-04-01T17:59:42.228Z,12.60
2023-04-01T18:02:32.497Z,14.40
2023-04-01T18:05:38.370Z,13.20
2023-04-01T18:09:02.286Z,20.20
2023-04-01T18:12:11.273Z,17.60
2023-04-01T18:15:29.727Z,15.40
2023-04-01T18:18:56.887Z,15.70
2023-04-01T18:21:56.749Z,16.40
2023-04-01T18:24:59.338Z,18.90
2023-04-01T18:27:46.597Z,14.00
2023-04-01T18:30:41.469Z,14.70
2023-04-01T18:33:48.639Z,12.20
2023-04-01T18:36:53.597Z,13.30
2023-04-01T18:39:52.799Z,13.10
2023-04-01T18:43:00.647Z,12.80
2023-04-01T18:46:00.797Z,13.40
2023-04-01T18:49:08.650Z,14.20
2023-04-01T18:52:11.726Z,14.00
2023-04-01T18:55:44.575Z,13.00
2023-04-01T18:58:54.165Z,12.70
2023-04-01T19:01:59.856Z,13.20
2023-04-01T19:05:04.417Z,14.20
2023-04-01T19:08:19.313Z,14.20
2023-04-01T19:11:22.957Z,15.30
2023-04-01T19:14:27.072Z,15.70
2023-04-01T19:17:37.229Z,18.00
2023-04-01T19:20:37.684Z,16.10
2023-04-01T19:24:26.948Z,17.10
2023-04-01T19:27:32.806Z,16.20
2023-04-01T19:30:44.400Z,15.80
2023-04-01T19:33:53.234Z,18.50
2023-04-01T19:36:54.363Z,18.60
2023-04-01T19:39:59.922Z,16.60
2023-04-01T19:43:12.384Z,16.90
2023-04-01T19:46:16.195Z,16.00
2023-04-01T19:49:29.374Z,17.40
2023-04-01T19:52:52.706Z,13.80
2023-04-01T19:55:59.475Z,13.20
2023-04-01T19:59:00.712Z,13.30
2023-04-01T20:02:03.862Z,16.50
2023-04-01T20:05:03.065Z,13.50
2023-04-01T20:08:04.756Z,15.50
2023-04-01T20:11:12.060Z,15.00
2023-04-01T20:14:22.245Z,17.40
2023-04-01T20:17:36.940Z,13.70
2023-04-01T20:21:06.006Z,15.90
2023-04-01T20:27:26.616Z,15.20
2023-04-01T20:31:03.395Z,15.40
2023-04-01T20:34:25.782Z,14.90
2023-04-01T20:37:38.373Z,14.60
2023-04-01T20:40:51.608Z,12.60
2023-04-01T20:44:07.033Z,14.20
2023-04-01T20:47:23.266Z,21.80
2023-04-01T20:50:38.794Z,26.90
2023-04-01T20:53:45.496Z,18.10
2023-04-01T20:57:00.245Z,16.50
2023-04-01T21:03:35.757Z,19.30
2023-04-01T21:07:23.172Z,19.60
2023-04-01T21:10:50.494Z,18.80
2023-04-01T21:13:49.043Z,18.10
2023-04-01T21:16:48.000Z,21.00
2023-04-01T21:20:07.853Z,18.10
2023-04-01T21:23:19.209Z,21.40
2023-04-01T21:26:13.360Z,17.00
2023-04-01T21:29:53.998Z,19.20
2023-04-01T21:33:04.246Z,23.00
2023-04-01T21:36:25.604Z,22.70
2023-04-01T21:39:45.625Z,21.40
2023-04-01T21:42:53.731Z,18.60
2023-04-01T21:46:18.017Z,22.70
2023-04-01T21:49:46.295Z,24.90
2023-04-01T21:53:08.579Z,22.80
2023-04-01T21:56:46.336Z,20.30
2023-04-01T22:00:17.389Z,19.20
2023-04-01T22:04:06.183Z,21.50
2023-04-01T22:07:08.884Z,20.10
2023-04-01T22:10:15.487Z,19.30
2023-04-01T22:13:17.776Z,19.00
2023-04-01T22:16:19.708Z,20.40
2023-04-01T22:19:23.253Z,20.70
2023-04-01T22:22:23.926Z,19.80
2023-04-01T22:25:27.280Z,21.40
2023-04-01T22:28:29.349Z,19.70
2023-04-01T22:31:29.123Z,21.00
2023-04-01T22:34:36.216Z,19.80
2023-04-01T22:37:56.280Z,19.60
2023-04-01T22:41:00.674Z,20.50
2023-04-01T22:44:01.531Z,20.20
2023-04-01T22:47:03.575Z,20.30
2023-04-01T22:50:05.150Z,18.40
2023-04-01T22:53:08.642Z,17.00
2023-04-01T22:56:07.191Z,20.60
2023-04-01T22:59:21.208Z,17.30
2023-04-01T23:02:23.508Z,19.90
2023-04-01T23:05:23.277Z,18.40
2023-04-01T23:08:52.127Z,19.90
2023-04-01T23:11:53.728Z,18.70
2023-04-01T23:14:55.294Z,20.00
2023-04-01T23:17:59.622Z,18.50
2023-04-01T23:21:18.283Z,20.20
2023-04-01T23:24:23.663Z,19.30
2023-04-01T23:27:26.007Z,20.60
2023-04-01T23:30:53.262Z,21.00
2023-04-01T23:33:47.007Z,24.10
2023-04-01T23:36:46.337Z,22.80
2023-04-01T23:39:44.901Z,18.60
2023-04-01T23:42:43.999Z,22.00
2023-04-01T23:45:23.237Z,20.40
2023-04-01T23:48:22.166Z,21.80
2023-04-01T23:51:40.859Z,22.80
2023-04-01T23:54:42.399Z,20.90
2023-04-01T23:57:37.868Z,20.90
